Time;durP1;ratioP1;P1;durP2;ratioP2;P2;SDS_P1;SDS_P2;PMS_P1;PMS_P2;Temp;Humidity;BMP_temperature;BMP_pressure;BME280_temperature;BME280_humidity;BME280_pressure;Samples;Min_cycle;Max_cycle;Signal;HPM_P1;HPM_P2
2023/05/29 00:01:55;;;;;;;;;;;;;;;15.81;100.00;96042.13;5029638;28;19933;-90
2023/05/29 00:04:22;;;;;;;;;;;;;;;15.72;100.00;96041.00;5023952;28;19935;-89
2023/05/29 00:06:50;;;;;;;;;;;;;;;15.63;100.00;96035.28;5026777;28;19924;-90
2023/05/29 00:09:19;;;;;;;;;;;;;;;15.60;100.00;96038.53;5022948;28;19925;-90
2023/05/29 00:11:50;;;;;;;;;;;;;;;15.65;100.00;96035.81;5025160;28;19956;-90
2023/05/29 00:14:19;;;;;;;;;;;;;;;15.67;100.00;96039.09;5028538;28;19971;-90
2023/05/29 00:16:46;;;;;;;;;;;;;;;15.64;100.00;96038.81;5014152;28;19929;-89
2023/05/29 00:19:13;;;;;;;;;;;;;;;15.61;100.00;96032.00;5030484;28;19932;-90
2023/05/29 00:21:40;;;;;;;;;;;;;;;15.67;100.00;96032.81;5018638;28;19976;-90
2023/05/29 00:24:07;;;;;;;;;;;;;;;15.69;100.00;96039.63;5022508;28;19932;-90
2023/05/29 00:26:35;;;;;;;;;;;;;;;15.70;100.00;96029.56;5040102;28;19925;-90
2023/05/29 00:29:02;;;;;;;;;;;;;;;15.71;100.00;96028.47;5015258;28;19949;-90
2023/05/29 00:31:29;;;;;;;;;;;;;;;15.69;100.00;96026.03;5045718;28;19932;-90
2023/05/29 00:33:56;;;;;;;;;;;;;;;15.71;100.00;96031.22;5025781;28;19925;-90
2023/05/29 00:36:23;;;;;;;;;;;;;;;15.72;100.00;96025.50;5024755;28;20012;-90
2023/05/29 00:38:50;;;;;;;;;;;;;;;15.77;100.00;96017.31;5028040;28;19925;-90
2023/05/29 00:41:17;;;;;;;;;;;;;;;15.77;100.00;96022.78;5014868;28;19933;-90
2023/05/29 00:43:46;;;;;;;;;;;;;;;15.79;100.00;96031.50;5027660;28;19925;-90
2023/05/29 00:46:14;;;;;;;;;;;;;;;15.71;100.00;96023.03;5031629;28;19932;-91
2023/05/29 00:48:41;;;;;;;;;;;;;;;15.66;100.00;96023.84;5046392;28;19990;-90
2023/05/29 00:51:08;;;;;;;;;;;;;;;15.66;100.00;96026.56;5027208;28;19925;-90
2023/05/29 00:53:34;;;;;;;;;;;;;;;15.65;100.00;96016.75;5031103;28;19932;-89
2023/05/29 00:56:02;;;;;;;;;;;;;;;15.55;100.00;96033.09;5027050;28;19983;-90
2023/05/29 00:58:29;;;;;;;;;;;;;;;15.45;100.00;96030.31;5035606;28;19929;-90
2023/05/29 01:00:58;;;;;;;;;;;;;;;15.40;100.00;96033.00;5031500;28;19979;-91
2023/05/29 01:03:25;;;;;;;;;;;;;;;15.33;100.00;96027.81;5029378;28;19932;-91
2023/05/29 01:05:52;;;;;;;;;;;;;;;15.28;100.00;96029.72;5027095;28;19927;-89
2023/05/29 01:08:19;;;;;;;;;;;;;;;15.18;100.00;96026.97;5018075;28;19929;-90
2023/05/29 01:10:47;;;;;;;;;;;;;;;15.15;100.00;96026.41;5023721;28;19968;-90
2023/05/29 01:13:17;;;;;;;;;;;;;;;15.19;100.00;96023.16;5034891;28;19986;-90
2023/05/29 01:15:48;;;;;;;;;;;;;;;15.25;100.00;96019.38;5030518;28;19929;-90
2023/05/29 01:18:24;;;;;;;;;;;;;;;15.19;100.00;96020.44;5030938;28;19975;-90
2023/05/29 01:20:53;;;;;;;;;;;;;;;15.15;100.00;96020.16;5031471;28;19959;-91
2023/05/29 01:23:44;;;;;;;;;;;;;;;15.08;100.00;96023.13;5028153;28;19924;-90
2023/05/29 01:26:18;;;;;;;;;;;;;;;15.10;100.00;96028.28;5022441;28;19925;-90
2023/05/29 01:28:48;;;;;;;;;;;;;;;15.12;100.00;96021.50;5047192;28;20276;-91
2023/05/29 01:31:18;;;;;;;;;;;;;;;15.14;100.00;96029.41;5028977;28;19948;-89
2023/05/29 01:33:52;;;;;;;;;;;;;;;15.13;100.00;96025.88;5020295;28;19961;-90
2023/05/29 01:36:19;;;;;;;;;;;;;;;15.11;100.00;96025.31;5016758;28;19925;-90
2023/05/29 01:38:45;;;;;;;;;;;;;;;15.08;100.00;96030.47;5037995;28;19929;-90
2023/05/29 01:41:12;;;;;;;;;;;;;;;14.94;100.00;96030.13;5027713;28;20015;-90
2023/05/29 01:43:40;;;;;;;;;;;;;;;14.82;100.00;96026.81;5049180;28;19925;-90
2023/05/29 01:46:08;;;;;;;;;;;;;;;14.78;100.00;96025.72;5027623;28;19925;-89
2023/05/29 01:48:37;;;;;;;;;;;;;;;14.78;100.00;96023.00;5042346;28;19925;-90
2023/05/29 01:51:04;;;;;;;;;;;;;;;14.74;100.00;96030.03;5039128;28;19925;-90
2023/05/29 01:53:31;;;;;;;;;;;;;;;14.73;100.00;96028.38;5024484;28;19928;-90
2023/05/29 01:55:58;;;;;;;;;;;;;;;14.75;100.00;96028.94;5023839;28;19925;-90
2023/05/29 01:58:26;;;;;;;;;;;;;;;14.68;100.00;96026.47;5028998;28;19932;-90
2023/05/29 02:00:53;;;;;;;;;;;;;;;14.63;100.00;96033.78;5029054;28;19932;-90
2023/05/29 02:03:22;;;;;;;;;;;;;;;14.62;100.00;96029.44;5027797;28;19931;-90
2023/05/29 02:05:49;;;;;;;;;;;;;;;14.57;100.00;96038.38;5026039;28;19925;-90
2023/05/29 02:08:15;;;;;;;;;;;;;;;14.54;100.00;96036.19;5017492;28;19936;-90
2023/05/29 02:10:42;;;;;;;;;;;;;;;14.45;100.00;96036.94;5017217;28;19925;-90
2023/05/29 02:13:09;;;;;;;;;;;;;;;14.33;100.00;96028.94;5029910;28;19928;-89
2023/05/29 02:15:36;;;;;;;;;;;;;;;14.22;100.00;96033.47;5027171;28;19924;-90
2023/05/29 02:18:02;;;;;;;;;;;;;;;14.20;100.00;96032.13;5031898;28;19928;-90
2023/05/29 02:20:31;;;;;;;;;;;;;;;14.12;100.00;96027.97;5031174;28;19947;-90
2023/05/29 02:22:58;;;;;;;;;;;;;;;14.14;100.00;96030.44;5031501;28;19953;-91
2023/05/29 02:25:25;;;;;;;;;;;;;;;14.11;100.00;96037.22;5031655;28;19979;-90
2023/05/29 02:27:52;;;;;;;;;;;;;;;14.06;100.00;96031.72;5030754;28;19925;-90
2023/05/29 02:30:19;;;;;;;;;;;;;;;14.07;100.00;96035.28;5024299;28;19932;-91
2023/05/29 02:32:46;;;;;;;;;;;;;;;14.10;100.00;96035.59;5019564;28;19999;-90
2023/05/29 02:35:14;;;;;;;;;;;;;;;14.04;100.00;96036.59;5030814;28;19975;-89
2023/05/29 02:37:43;;;;;;;;;;;;;;;13.98;100.00;96032.22;5026211;28;19935;-90
2023/05/29 02:40:10;;;;;;;;;;;;;;;14.01;100.00;96034.41;5029594;28;19951;-90
2023/05/29 02:42:38;;;;;;;;;;;;;;;14.08;100.00;96037.72;5026129;28;19925;-90
2023/05/29 02:45:06;;;;;;;;;;;;;;;14.10;100.00;96034.75;5036725;28;19984;-90
2023/05/29 02:47:33;;;;;;;;;;;;;;;13.94;100.00;96034.66;5025294;28;19925;-90
2023/05/29 02:50:00;;;;;;;;;;;;;;;13.91;100.00;96035.16;5022628;28;19924;-90
2023/05/29 02:52:27;;;;;;;;;;;;;;;13.93;100.00;96029.47;5017795;28;19932;-90
2023/05/29 02:54:55;;;;;;;;;;;;;;;13.97;100.00;96030.56;5017719;28;19929;-90
2023/05/29 02:57:23;;;;;;;;;;;;;;;14.01;100.00;96042.56;5028694;28;19924;-90
2023/05/29 02:59:50;;;;;;;;;;;;;;;14.02;100.00;96042.31;5023125;28;19933;-90
2023/05/29 03:02:16;;;;;;;;;;;;;;;14.00;100.00;96035.50;5028893;28;19925;-90
2023/05/29 03:04:43;;;;;;;;;;;;;;;13.96;100.00;96040.63;5050271;28;19925;-90
2023/05/29 03:07:10;;;;;;;;;;;;;;;13.97;100.00;96041.44;5019025;28;19935;-90
2023/05/29 03:09:38;;;;;;;;;;;;;;;13.97;100.00;96039.53;5027086;28;19925;-91
2023/05/29 03:12:06;;;;;;;;;;;;;;;13.97;100.00;96046.84;5020709;28;19933;-90
2023/05/29 03:14:35;;;;;;;;;;;;;;;13.97;100.00;96036.00;5029925;28;20011;-91
2023/05/29 03:17:05;;;;;;;;;;;;;;;13.96;100.00;96034.38;5028700;28;19987;-89
2023/05/29 03:19:32;;;;;;;;;;;;;;;13.90;100.00;96029.97;5036236;28;19929;-90
2023/05/29 03:21:59;;;;;;;;;;;;;;;13.87;100.00;96034.00;5034270;28;19928;-90
2023/05/29 03:24:27;;;;;;;;;;;;;;;13.83;100.00;96038.34;5018551;28;19929;-91
2023/05/29 03:26:55;;;;;;;;;;;;;;;13.66;100.00;96034.94;5029734;28;19925;-90
2023/05/29 03:29:25;;;;;;;;;;;;;;;13.62;100.00;96040.03;5025741;28;19925;-90
2023/05/29 03:31:54;;;;;;;;;;;;;;;13.67;100.00;96041.19;5029595;28;19964;-90
2023/05/29 03:34:26;;;;;;;;;;;;;;;13.67;100.00;96042.00;5025224;28;19925;-90
2023/05/29 03:36:57;;;;;;;;;;;;;;;13.62;100.00;96040.03;5039028;28;19925;-90
2023/05/29 03:39:25;;;;;;;;;;;;;;;13.62;100.00;96040.03;5021982;28;19961;-91
2023/05/29 03:41:53;;;;;;;;;;;;;;;13.63;100.00;96033.53;5031349;28;19955;-90
2023/05/29 03:44:20;;;;;;;;;;;;;;;13.60;100.00;96036.78;5014016;28;19943;-90
2023/05/29 03:46:48;;;;;;;;;;;;;;;13.52;100.00;96037.25;5035679;28;19925;-91
2023/05/29 03:49:15;;;;;;;;;;;;;;;13.51;100.00;96048.34;5040891;28;19925;-90
2023/05/29 03:51:43;;;;;;;;;;;;;;;13.58;100.00;96047.06;5031509;28;19932;-91
2023/05/29 03:54:10;;;;;;;;;;;;;;;13.61;100.00;96038.41;5019135;28;19925;-90
2023/05/29 03:56:37;;;;;;;;;;;;;;;13.63;100.00;96049.81;5030564;28;20014;-90
2023/05/29 03:59:04;;;;;;;;;;;;;;;13.62;100.00;96045.47;5022873;28;19924;-89
2023/05/29 04:01:33;;;;;;;;;;;;;;;13.64;100.00;96045.22;5024412;28;19929;-90
2023/05/29 04:04:01;;;;;;;;;;;;;;;13.67;100.00;96050.13;5025904;28;19925;-90
2023/05/29 04:06:29;;;;;;;;;;;;;;;13.64;100.00;96048.75;5036476;28;19971;-90
2023/05/29 04:08:57;;;;;;;;;;;;;;;13.55;100.00;96058.41;5013086;28;19925;-89
2023/05/29 04:11:24;;;;;;;;;;;;;;;13.48;100.00;96060.53;5018253;28;20000;-90
2023/05/29 04:13:50;;;;;;;;;;;;;;;13.41;100.00;96059.91;5042924;28;19933;-90
2023/05/29 04:16:17;;;;;;;;;;;;;;;13.35;100.00;96066.34;5026084;28;19967;-90
2023/05/29 04:18:44;;;;;;;;;;;;;;;13.31;100.00;96070.63;5022315;28;19948;-90
2023/05/29 04:21:12;;;;;;;;;;;;;;;13.28;100.00;96068.41;5017772;28;20020;-90
2023/05/29 04:23:39;;;;;;;;;;;;;;;13.29;100.00;96077.38;5024462;28;19929;-89
2023/05/29 04:26:06;;;;;;;;;;;;;;;13.31;100.00;96083.38;5030811;28;19986;-89
2023/05/29 04:28:37;;;;;;;;;;;;;;;13.39;100.00;96082.91;5029792;28;19963;-90
2023/05/29 04:31:05;;;;;;;;;;;;;;;13.41;100.00;96092.44;5026980;28;20020;-90
2023/05/29 04:33:32;;;;;;;;;;;;;;;13.42;100.00;96091.38;5042900;28;19936;-90
2023/05/29 04:36:00;;;;;;;;;;;;;;;13.42;100.00;96104.13;5029357;28;19936;-91
2023/05/29 04:38:29;;;;;;;;;;;;;;;13.43;100.00;96098.44;5033532;28;19933;-91
2023/05/29 04:40:58;;;;;;;;;;;;;;;13.38;100.00;96102.97;5028891;28;19929;-90
2023/05/29 04:43:26;;;;;;;;;;;;;;;13.40;100.00;96103.53;5021829;28;19982;-90
2023/05/29 04:46:01;;;;;;;;;;;;;;;13.42;100.00;96104.94;5028293;28;19957;-90
2023/05/29 04:48:29;;;;;;;;;;;;;;;13.47;100.00;96104.97;5030384;28;20012;-91
2023/05/29 04:50:57;;;;;;;;;;;;;;;13.49;100.00;96104.75;5028553;28;19926;-89
2023/05/29 04:53:25;;;;;;;;;;;;;;;13.43;100.00;96106.59;5030995;28;19992;-90
2023/05/29 04:55:53;;;;;;;;;;;;;;;13.41;100.00;96099.75;5033533;28;19933;-90
2023/05/29 04:58:21;;;;;;;;;;;;;;;13.31;100.00;96105.88;5025826;28;19925;-91
2023/05/29 05:00:49;;;;;;;;;;;;;;;13.25;100.00;96109.63;5023371;28;19925;-91
2023/05/29 05:03:16;;;;;;;;;;;;;;;13.26;100.00;96111.25;5030031;28;19925;-90
2023/05/29 05:05:44;;;;;;;;;;;;;;;13.27;100.00;96103.94;5021796;28;19932;-89
2023/05/29 05:08:12;;;;;;;;;;;;;;;13.22;100.00;96116.34;5030518;28;20194;-89
2023/05/29 05:10:39;;;;;;;;;;;;;;;13.17;100.00;96124.44;5028193;28;19991;-89
2023/05/29 05:13:08;;;;;;;;;;;;;;;13.10;100.00;96112.91;5029749;28;19959;-89
2023/05/29 05:15:35;;;;;;;;;;;;;;;13.11;100.00;96121.84;5030130;28;19937;-90
2023/05/29 05:18:02;;;;;;;;;;;;;;;13.14;100.00;96113.25;5019427;28;19975;-90
2023/05/29 05:20:30;;;;;;;;;;;;;;;13.11;100.00;96116.44;5031704;28;19935;-90
2023/05/29 05:22:59;;;;;;;;;;;;;;;13.07;100.00;96113.44;5033656;28;19925;-90
2023/05/29 05:25:27;;;;;;;;;;;;;;;13.08;100.00;96117.78;5029662;28;19932;-89
2023/05/29 05:27:55;;;;;;;;;;;;;;;13.04;100.00;96121.22;5029725;28;19940;-90
2023/05/29 05:30:25;;;;;;;;;;;;;;;12.99;100.00;96115.75;5033615;28;19929;-89
2023/05/29 05:32:52;;;;;;;;;;;;;;;13.00;100.00;96112.78;5031979;28;19933;-89
2023/05/29 05:35:19;;;;;;;;;;;;;;;13.01;100.00;96114.44;5032690;28;19925;-90
2023/05/29 05:37:47;;;;;;;;;;;;;;;13.03;100.00;96114.16;5029938;28;19960;-89
2023/05/29 05:40:14;;;;;;;;;;;;;;;13.01;100.00;96119.03;5042130;28;19933;-90
2023/05/29 05:42:51;;;;;;;;;;;;;;;13.02;100.00;96115.22;5031443;28;19931;-90
2023/05/29 05:45:23;;;;;;;;;;;;;;;13.11;100.00;96119.16;5042984;28;19936;-89
2023/05/29 05:47:51;;;;;;;;;;;;;;;13.16;100.00;96111.13;5030134;28;20074;-90
2023/05/29 05:50:22;;;;;;;;;;;;;;;13.21;100.00;96117.44;5034186;28;20256;-90
2023/05/29 05:52:49;;;;;;;;;;;;;;;13.31;100.00;96114.03;5022079;28;19929;-90
2023/05/29 05:55:16;;;;;;;;;;;;;;;13.40;100.00;96117.94;5025096;28;19948;-90
2023/05/29 05:57:43;;;;;;;;;;;;;;;13.42;100.00;96121.22;5017857;28;19925;-90
2023/05/29 06:00:12;;;;;;;;;;;;;;;13.39;100.00;96118.19;5045629;28;19931;-91
2023/05/29 06:02:44;;;;;;;;;;;;;;;13.38;100.00;96125.50;5045563;28;19924;-91
2023/05/29 06:05:15;;;;;;;;;;;;;;;13.42;100.00;96114.97;5030107;28;19926;-90
2023/05/29 06:07:43;;;;;;;;;;;;;;;13.50;100.00;96118.06;5038498;28;19953;-90
2023/05/29 06:10:10;;;;;;;;;;;;;;;13.53;100.00;96114.00;5021941;28;19937;-90
2023/05/29 06:12:37;;;;;;;;;;;;;;;13.54;100.00;96119.16;5029466;28;19925;-90
2023/05/29 06:15:15;;;;;;;;;;;;;;;13.52;100.00;96117.81;5022075;28;19925;-86
2023/05/29 06:17:43;;;;;;;;;;;;;;;13.47;100.00;96106.88;5015792;28;19961;-88
2023/05/29 06:20:10;;;;;;;;;;;;;;;13.54;100.00;96113.75;5028779;28;19932;-88
2023/05/29 06:22:39;;;;;;;;;;;;;;;13.61;100.00;96114.34;5033712;28;19956;-89
2023/05/29 06:25:06;;;;;;;;;;;;;;;13.74;100.00;96109.63;5022527;28;19936;-89
2023/05/29 06:27:33;;;;;;;;;;;;;;;13.85;100.00;96116.78;5014194;28;20032;-89
2023/05/29 06:30:00;;;;;;;;;;;;;;;13.95;100.00;96111.47;5017708;28;20049;-89
2023/05/29 06:32:28;;;;;;;;;;;;;;;13.97;100.00;96118.25;5015959;28;19936;-89
2023/05/29 06:34:57;;;;;;;;;;;;;;;13.96;100.00;96113.91;5043267;28;19925;-89
2023/05/29 06:37:24;;;;;;;;;;;;;;;13.98;100.00;96114.47;5024279;28;19930;-89
2023/05/29 06:39:52;;;;;;;;;;;;;;;14.00;100.00;96116.94;5018756;28;19944;-89
2023/05/29 06:42:19;;;;;;;;;;;;;;;14.00;100.00;96112.31;5020903;28;19933;-89
2023/05/29 06:44:46;;;;;;;;;;;;;;;14.05;100.00;96118.84;5028518;28;19933;-89
2023/05/29 06:47:13;;;;;;;;;;;;;;;14.11;100.00;96118.69;5028306;28;19938;-89
2023/05/29 06:49:41;;;;;;;;;;;;;;;14.14;100.00;96123.56;5019949;28;19933;-90
2023/05/29 06:52:07;;;;;;;;;;;;;;;14.19;100.00;96114.66;5029977;28;19929;-88
2023/05/29 06:54:56;;;;;;;;;;;;;;;14.29;100.00;96114.75;5023958;28;19947;-88
2023/05/29 06:57:23;;;;;;;;;;;;;;;14.35;100.00;96117.25;5027049;28;19929;-88
2023/05/29 06:59:50;;;;;;;;;;;;;;;14.34;100.00;96118.31;5027817;28;19932;-88
2023/05/29 07:02:17;;;;;;;;;;;;;;;14.35;100.00;96114.53;5025842;28;19925;-88
2023/05/29 07:04:47;;;;;;;;;;;;;;;14.42;100.00;96119.78;5025798;28;20230;-88
2023/05/29 07:07:14;;;;;;;;;;;;;;;14.53;100.00;96112.53;5035886;28;19936;-88
2023/05/29 07:09:41;;;;;;;;;;;;;;;14.61;100.00;96109.31;5031041;28;19928;-88
2023/05/29 07:12:09;;;;;;;;;;;;;;;14.89;100.00;96117.09;5024228;28;19939;-87
2023/05/29 07:14:36;;;;;;;;;;;;;;;15.28;100.00;96112.13;5026969;28;19925;-88
2023/05/29 07:17:03;;;;;;;;;;;;;;;15.65;100.00;96114.75;5046031;28;20110;-88
2023/05/29 07:19:32;;;;;;;;;;;;;;;16.08;100.00;96115.38;5028292;28;19932;-87
2023/05/29 07:21:59;;;;;;;;;;;;;;;16.36;100.00;96116.75;5023046;28;19989;-87
2023/05/29 07:24:26;;;;;;;;;;;;;;;16.58;100.00;96112.69;5020257;28;19963;-88
2023/05/29 07:26:54;;;;;;;;;;;;;;;16.85;100.00;96112.38;5023806;28;19929;-87
2023/05/29 07:29:23;;;;;;;;;;;;;;;17.12;100.00;96113.97;5027685;28;19926;-88
2023/05/29 07:31:50;;;;;;;;;;;;;;;17.32;100.00;96106.53;5043916;28;19928;-87
2023/05/29 07:34:19;;;;;;;;;;;;;;;17.67;100.00;96115.72;5038372;28;19924;-87
2023/05/29 07:36:57;;;;;;;;;;;;;;;18.00;100.00;96114.97;5025039;28;19924;-87
2023/05/29 07:39:24;;;;;;;;;;;;;;;18.25;100.00;96115.91;5021256;28;19929;-87
2023/05/29 07:41:51;;;;;;;;;;;;;;;18.50;100.00;96110.25;5025174;28;19924;-87
2023/05/29 07:44:18;;;;;;;;;;;;;;;18.66;100.00;96111.78;5028186;28;19928;-88
2023/05/29 07:46:46;;;;;;;;;;;;;;;18.88;99.78;96114.03;5018533;28;19925;-87
2023/05/29 07:49:43;;;;;;;;;;;;;;;19.00;98.14;96110.91;5031827;28;19925;-87
2023/05/29 07:52:10;;;;;;;;;;;;;;;19.08;98.67;96113.00;5021491;28;19937;-88
2023/05/29 07:54:38;;;;;;;;;;;;;;;19.30;98.66;96116.06;5019900;28;19924;-87
2023/05/29 07:57:09;;;;;;;;;;;;;;;19.34;96.68;96119.84;5034279;28;19932;-86
2023/05/29 07:59:40;;;;;;;;;;;;;;;19.38;95.11;96112.69;5026936;28;19925;-86
2023/05/29 08:02:08;;;;;;;;;;;;;;;19.48;96.01;96107.09;5031728;28;20261;-87
2023/05/29 08:04:50;;;;;;;;;;;;;;;19.50;94.51;96104.88;5023379;28;19940;-87
2023/05/29 08:07:17;;;;;;;;;;;;;;;19.62;95.52;96102.56;5009886;28;19934;-87
2023/05/29 08:09:44;;;;;;;;;;;;;;;19.53;96.57;96108.97;5007872;28;19933;-87
2023/05/29 08:12:10;;;;;;;;;;;;;;;19.73;93.38;96107.91;5026387;28;19925;-87
2023/05/29 08:14:37;;;;;;;;;;;;;;;19.83;91.39;96107.75;5013803;28;19957;-87
2023/05/29 08:17:04;;;;;;;;;;;;;;;19.98;92.83;96111.13;5026191;28;19929;-87
2023/05/29 08:19:33;;;;;;;;;;;;;;;20.01;92.73;96104.22;5010126;28;19925;-88
2023/05/29 08:22:00;;;;;;;;;;;;;;;19.86;93.63;96110.72;5019524;28;19997;-87
2023/05/29 08:24:27;;;;;;;;;;;;;;;19.84;93.32;96101.97;5008121;28;19925;-88
2023/05/29 08:26:54;;;;;;;;;;;;;;;20.06;93.24;96101.41;5011659;28;19964;-87
2023/05/29 08:29:22;;;;;;;;;;;;;;;20.25;89.57;96104.94;5007620;28;19932;-87
2023/05/29 08:31:49;;;;;;;;;;;;;;;20.53;91.32;96102.34;5015543;28;19964;-87
2023/05/29 08:34:16;;;;;;;;;;;;;;;20.81;86.21;96114.25;5024608;28;19932;-87
2023/05/29 08:36:45;;;;;;;;;;;;;;;20.72;85.90;96097.66;5014644;28;19960;-87
2023/05/29 08:39:11;;;;;;;;;;;;;;;20.77;86.25;96103.03;5031852;28;20090;-87
2023/05/29 08:41:42;;;;;;;;;;;;;;;20.94;88.46;96102.47;5013865;28;19925;-88
2023/05/29 08:44:14;;;;;;;;;;;;;;;20.91;85.36;96097.59;5032542;28;20012;-87
2023/05/29 08:46:42;;;;;;;;;;;;;;;20.91;86.36;96108.56;5008431;28;19925;-87
2023/05/29 08:49:09;;;;;;;;;;;;;;;20.89;85.50;96100.63;5026939;28;19947;-88
2023/05/29 08:51:38;;;;;;;;;;;;;;;21.03;84.68;96097.91;5014530;28;19932;-87
2023/05/29 08:54:07;;;;;;;;;;;;;;;21.18;84.16;96103.13;5022577;28;20012;-88
2023/05/29 08:56:35;;;;;;;;;;;;;;;21.11;84.82;96095.28;5015883;28;19971;-87
2023/05/29 08:59:03;;;;;;;;;;;;;;;21.00;83.14;96098.53;5034650;28;19929;-87
2023/05/29 09:01:31;;;;;;;;;;;;;;;21.12;85.14;96096.91;5008352;28;20007;-86
2023/05/29 09:03:58;;;;;;;;;;;;;;;21.28;84.30;96102.13;5030047;28;19925;-87
2023/05/29 09:06:25;;;;;;;;;;;;;;;21.50;83.65;96102.25;5027528;28;19933;-88
2023/05/29 09:08:52;;;;;;;;;;;;;;;21.68;83.32;96098.59;5011850;28;19925;-88
2023/05/29 09:11:21;;;;;;;;;;;;;;;21.71;79.20;96097.97;5024902;28;19935;-87
2023/05/29 09:13:48;;;;;;;;;;;;;;;21.54;79.91;96100.50;5013702;28;19937;-87
2023/05/29 09:16:16;;;;;;;;;;;;;;;21.53;80.18;96102.44;5018417;28;19972;-83
2023/05/29 09:18:45;;;;;;;;;;;;;;;21.51;82.10;96092.91;5006941;28;19926;-88
2023/05/29 09:21:26;;;;;;;;;;;;;;;21.48;79.29;96099.00;5042636;28;19987;-88
2023/05/29 09:23:52;;;;;;;;;;;;;;;21.56;77.38;96094.72;5017294;28;19925;-88
2023/05/29 09:26:22;;;;;;;;;;;;;;;21.63;78.57;96092.38;5016666;28;19932;-87
2023/05/29 09:28:48;;;;;;;;;;;;;;;21.87;79.82;96091.00;5011743;28;20019;-88
2023/05/29 09:31:16;;;;;;;;;;;;;;;21.85;77.64;96096.03;5012252;28;19925;-87
2023/05/29 09:33:48;;;;;;;;;;;;;;;21.76;78.40;96100.63;5015525;28;19925;-87
2023/05/29 09:36:20;;;;;;;;;;;;;;;21.79;78.05;96093.66;5002093;28;19980;-87
2023/05/29 09:38:47;;;;;;;;;;;;;;;21.81;78.76;96086.75;5015159;28;19925;-88
2023/05/29 09:41:15;;;;;;;;;;;;;;;21.90;79.42;96095.91;5017105;28;19929;-88
2023/05/29 09:43:46;;;;;;;;;;;;;;;22.00;77.99;96083.09;5033037;28;19935;-88
2023/05/29 09:46:15;;;;;;;;;;;;;;;22.08;78.57;96090.59;5013463;28;20294;-88
2023/05/29 09:48:43;;;;;;;;;;;;;;;22.07;77.14;96094.47;5013245;28;19968;-88
2023/05/29 09:51:20;;;;;;;;;;;;;;;22.16;76.70;96087.94;5016038;28;19952;-87
2023/05/29 09:53:48;;;;;;;;;;;;;;;22.15;76.18;96085.47;5011538;28;19956;-87
2023/05/29 09:56:17;;;;;;;;;;;;;;;22.00;78.08;96088.59;5009331;28;19944;-87
2023/05/29 09:58:46;;;;;;;;;;;;;;;22.15;80.36;96080.78;5007695;28;19929;-88
2023/05/29 10:01:15;;;;;;;;;;;;;;;22.39;77.44;96086.00;5012091;28;20043;-88
2023/05/29 10:03:42;;;;;;;;;;;;;;;22.56;76.06;96080.63;5029145;28;19933;-87
2023/05/29 10:06:11;;;;;;;;;;;;;;;22.73;73.04;96082.69;5021509;28;20006;-87
2023/05/29 10:08:38;;;;;;;;;;;;;;;22.87;74.48;96080.72;5051293;28;19924;-87
2023/05/29 10:11:09;;;;;;;;;;;;;;;22.84;72.25;96081.34;5033013;28;19936;-88
2023/05/29 10:13:37;;;;;;;;;;;;;;;22.93;73.48;96075.88;5029816;28;19924;-88
2023/05/29 10:16:08;;;;;;;;;;;;;;;22.83;72.31;96078.91;5047553;28;19932;-87
2023/05/29 10:18:38;;;;;;;;;;;;;;;22.89;70.17;96081.19;5030477;28;19947;-87
2023/05/29 10:21:05;;;;;;;;;;;;;;;22.96;70.78;96076.06;5035225;28;19925;-88
2023/05/29 10:23:33;;;;;;;;;;;;;;;23.14;70.04;96068.69;5047613;28;19925;-88
2023/05/29 10:26:07;;;;;;;;;;;;;;;23.32;69.88;96070.41;5029372;28;19929;-88
2023/05/29 10:28:37;;;;;;;;;;;;;;;23.44;69.55;96078.06;5036092;28;19928;-88
2023/05/29 10:31:09;;;;;;;;;;;;;;;23.42;67.45;96058.28;5028153;28;19929;-88
2023/05/29 10:33:46;;;;;;;;;;;;;;;23.42;67.24;96057.47;5039341;28;19943;-88
2023/05/29 10:36:14;;;;;;;;;;;;;;;23.55;67.35;96054.63;5040089;28;19925;-88
2023/05/29 10:38:42;;;;;;;;;;;;;;;23.64;68.90;96051.91;5016424;28;20000;-88
2023/05/29 10:41:28;;;;;;;;;;;;;;;23.79;68.40;96051.44;5015461;28;20024;-88
2023/05/29 10:43:55;;;;;;;;;;;;;;;23.76;68.69;96047.38;5027726;28;19925;-84
2023/05/29 10:46:44;;;;;;;;;;;;;;;23.75;68.15;96040.25;5034738;28;19933;-84
2023/05/29 10:49:16;;;;;;;;;;;;;;;23.83;67.37;96051.59;5023050;28;19933;-88
2023/05/29 10:51:43;;;;;;;;;;;;;;;23.92;66.35;96044.16;5050757;28;19928;-87
2023/05/29 10:54:11;;;;;;;;;;;;;;;23.91;65.58;96048.03;5018884;28;19932;-88
2023/05/29 10:56:37;;;;;;;;;;;;;;;23.77;66.13;96045.44;5037099;28;19963;-87
2023/05/29 10:59:04;;;;;;;;;;;;;;;23.75;67.16;96043.00;5031710;28;20175;-87
2023/05/29 11:01:33;;;;;;;;;;;;;;;23.80;66.52;96042.03;5035288;28;19978;-87
2023/05/29 11:04:19;;;;;;;;;;;;;;;24.02;65.96;96039.13;5036331;28;19932;-87
2023/05/29 11:06:47;;;;;;;;;;;;;;;24.31;65.68;96037.72;5041802;28;19925;-88
2023/05/29 11:09:27;;;;;;;;;;;;;;;24.50;64.40;96035.41;5039242;28;19930;-88
2023/05/29 11:12:08;;;;;;;;;;;;;;;24.49;62.45;96036.56;5036545;28;19925;-87
2023/05/29 11:14:49;;;;;;;;;;;;;;;24.50;64.26;96029.88;5028842;28;19936;-88
2023/05/29 11:17:33;;;;;;;;;;;;;;;24.63;64.53;96033.63;5039935;28;19987;-87
2023/05/29 11:20:06;;;;;;;;;;;;;;;24.69;61.04;96022.06;5027264;28;19925;-87
2023/05/29 11:22:41;;;;;;;;;;;;;;;24.87;62.88;96025.59;5026606;28;19925;-87
2023/05/29 11:25:08;;;;;;;;;;;;;;;24.98;62.48;96020.56;5025065;28;19992;-88
2023/05/29 11:27:35;;;;;;;;;;;;;;;25.08;62.54;96020.22;5034768;28;19925;-88
2023/05/29 11:30:03;;;;;;;;;;;;;;;24.87;60.51;96020.06;5034876;28;19933;-88
2023/05/29 11:32:30;;;;;;;;;;;;;;;24.94;59.51;96019.59;5050152;28;19924;-87
2023/05/29 11:35:00;;;;;;;;;;;;;;;24.93;62.11;96020.72;5037842;28;19925;-87
2023/05/29 11:37:27;;;;;;;;;;;;;;;25.06;62.73;96014.19;5035224;28;19968;-86
2023/05/29 11:39:55;;;;;;;;;;;;;;;25.20;58.51;96023.88;5032202;28;19926;-87
2023/05/29 11:42:22;;;;;;;;;;;;;;;25.01;58.91;96003.34;5024604;28;20056;-88
2023/05/29 11:44:52;;;;;;;;;;;;;;;25.19;59.95;96005.69;5037083;28;19925;-86
2023/05/29 11:47:19;;;;;;;;;;;;;;;25.19;58.65;96004.88;5041605;28;19932;-85
2023/05/29 11:49:46;;;;;;;;;;;;;;;25.12;59.25;95999.06;5035140;28;20000;-85
2023/05/29 11:52:16;;;;;;;;;;;;;;;25.05;60.57;95993.25;5066333;28;19913;-86
2023/05/29 11:54:46;;;;;;;;;;;;;;;25.45;60.58;96007.50;5046460;28;19929;-88
2023/05/29 11:57:18;;;;;;;;;;;;;;;25.73;59.71;96008.69;5027521;28;19948;-87
2023/05/29 11:59:45;;;;;;;;;;;;;;;25.93;58.99;96012.63;5023418;28;19988;-88
2023/05/29 12:02:11;;;;;;;;;;;;;;;25.88;58.50;96010.03;5025420;28;20022;-88
2023/05/29 12:04:38;;;;;;;;;;;;;;;25.78;57.30;96011.25;5024285;28;19925;-85
2023/05/29 12:07:18;;;;;;;;;;;;;;;25.86;57.10;96009.59;5028010;28;19932;-85
2023/05/29 12:09:47;;;;;;;;;;;;;;;25.97;56.96;96008.03;5042156;28;19925;-86
2023/05/29 12:12:15;;;;;;;;;;;;;;;26.03;56.12;96003.91;5030906;28;19925;-85
2023/05/29 12:14:42;;;;;;;;;;;;;;;25.98;56.10;96009.66;5051932;28;19966;-85
2023/05/29 12:17:09;;;;;;;;;;;;;;;26.05;57.55;96004.38;5030561;28;19928;-86
2023/05/29 12:19:35;;;;;;;;;;;;;;;26.25;56.41;96000.81;5025820;28;19925;-85
2023/05/29 12:22:03;;;;;;;;;;;;;;;26.44;54.78;96002.31;5028710;28;19924;-86
2023/05/29 12:24:31;;;;;;;;;;;;;;;26.35;55.21;96007.91;5029127;28;19933;-85
2023/05/29 12:27:00;;;;;;;;;;;;;;;26.45;55.34;96004.75;5032858;28;19948;-86
2023/05/29 12:29:30;;;;;;;;;;;;;;;26.50;55.61;96004.50;5044044;28;19967;-86
2023/05/29 12:31:58;;;;;;;;;;;;;;;26.77;55.34;95996.75;5028282;28;19925;-85
2023/05/29 12:34:25;;;;;;;;;;;;;;;26.70;53.94;95998.13;5028115;28;19964;-86
2023/05/29 12:36:52;;;;;;;;;;;;;;;26.80;55.12;95996.06;5053300;28;19931;-86
2023/05/29 12:39:18;;;;;;;;;;;;;;;27.05;55.39;95995.78;5028765;28;19925;-86
2023/05/29 12:41:48;;;;;;;;;;;;;;;27.09;53.09;95990.38;5025915;28;19924;-88
2023/05/29 12:44:15;;;;;;;;;;;;;;;26.98;52.32;95995.53;5025169;28;19987;-88
2023/05/29 12:46:43;;;;;;;;;;;;;;;27.03;52.38;95989.81;5021870;28;19925;-88
2023/05/29 12:49:14;;;;;;;;;;;;;;;27.05;52.96;95987.47;5030361;28;19925;-86